createdAt,value
2019-03-15T00:01:45.695Z,1.89
2019-03-15T00:04:14.345Z,1.85
2019-03-15T00:06:43.002Z,1.95
2019-03-15T00:09:11.616Z,2.00
2019-03-15T00:11:40.285Z,1.99
2019-03-15T00:14:08.895Z,1.96
2019-03-15T00:16:37.586Z,1.86
2019-03-15T00:19:06.199Z,1.89
2019-03-15T00:21:34.868Z,1.87
2019-03-15T00:24:03.672Z,1.90
2019-03-15T00:26:32.351Z,1.89
2019-03-15T00:29:01.091Z,1.86
2019-03-15T00:31:29.710Z,1.82
2019-03-15T00:33:58.385Z,1.84
2019-03-15T00:36:27.007Z,1.80
2019-03-15T00:38:55.686Z,1.86
2019-03-15T00:41:24.300Z,2.02
2019-03-15T00:43:52.974Z,2.10
2019-03-15T00:46:21.637Z,1.87
2019-03-15T00:48:50.305Z,1.95
2019-03-15T00:51:18.911Z,1.92
2019-03-15T00:53:47.518Z,1.83
2019-03-15T00:56:16.190Z,1.93
2019-03-15T00:58:44.902Z,1.98
2019-03-15T01:01:13.809Z,1.98
2019-03-15T01:03:44.605Z,2.04
2019-03-15T01:06:13.282Z,2.06
2019-03-15T01:08:41.954Z,1.98
2019-03-15T01:11:10.615Z,1.96
2019-03-15T01:13:39.320Z,2.02
2019-03-15T01:16:08.943Z,2.06
2019-03-15T01:18:37.861Z,2.06
2019-03-15T01:21:06.474Z,2.03
2019-03-15T01:23:35.140Z,2.05
2019-03-15T01:26:03.797Z,2.09
2019-03-15T01:28:32.403Z,2.13
2019-03-15T01:31:01.072Z,2.15
2019-03-15T01:33:29.772Z,2.10
2019-03-15T01:35:58.396Z,1.96
2019-03-15T01:38:27.044Z,2.01
2019-03-15T01:40:55.656Z,1.91
2019-03-15T01:43:24.331Z,1.89
2019-03-15T01:45:53.109Z,1.95
2019-03-15T01:48:21.781Z,1.97
2019-03-15T01:50:50.540Z,2.00
2019-03-15T01:53:19.282Z,1.94
2019-03-15T01:55:47.890Z,1.98
2019-03-15T01:58:16.597Z,1.94
2019-03-15T02:00:45.212Z,1.93
2019-03-15T02:03:13.918Z,1.95
2019-03-15T02:05:42.567Z,2.03
2019-03-15T02:08:11.201Z,2.14
2019-03-15T02:10:39.907Z,2.37
2019-03-15T02:13:08.566Z,2.36
2019-03-15T02:15:37.192Z,2.03
2019-03-15T02:18:05.877Z,2.00
2019-03-15T02:20:34.556Z,2.11
2019-03-15T02:23:03.168Z,2.06
2019-03-15T02:25:31.784Z,1.88
2019-03-15T02:28:00.573Z,2.00
2019-03-15T02:30:29.198Z,1.96
2019-03-15T02:32:57.902Z,1.98
2019-03-15T02:35:26.566Z,2.17
2019-03-15T02:37:55.266Z,2.30
2019-03-15T02:40:23.877Z,2.18
2019-03-15T02:42:53.133Z,2.10
2019-03-15T02:45:22.050Z,2.12
2019-03-15T02:47:50.720Z,2.01
2019-03-15T02:50:19.366Z,2.07
2019-03-15T02:52:48.294Z,2.02
2019-03-15T02:55:17.114Z,1.90
2019-03-15T02:57:46.934Z,1.91
2019-03-15T03:00:15.603Z,1.91
2019-03-15T03:02:44.226Z,2.04
2019-03-15T03:05:12.889Z,2.03
2019-03-15T03:07:41.603Z,2.05
2019-03-15T03:10:10.427Z,2.07
2019-03-15T03:12:39.044Z,2.09
2019-03-15T03:15:08.415Z,2.06
2019-03-15T03:17:37.093Z,2.05
2019-03-15T03:20:07.172Z,1.98
2019-03-15T03:22:36.346Z,1.92
2019-03-15T03:25:05.985Z,1.90
2019-03-15T03:27:34.661Z,1.92
2019-03-15T03:30:03.333Z,2.04
2019-03-15T03:32:32.090Z,2.08
2019-03-15T03:35:01.043Z,2.12
2019-03-15T03:37:29.944Z,2.14
2019-03-15T03:39:58.631Z,2.09
2019-03-15T03:42:27.312Z,2.06
2019-03-15T03:44:56.029Z,1.99
2019-03-15T03:47:24.751Z,1.96
2019-03-15T03:49:53.638Z,1.98
2019-03-15T03:52:22.695Z,2.13
2019-03-15T03:54:51.309Z,2.28
2019-03-15T03:57:19.939Z,2.11
2019-03-15T03:59:48.602Z,2.14
2019-03-15T04:02:17.232Z,2.15
2019-03-15T04:04:45.882Z,2.33
2019-03-15T04:07:14.557Z,2.16
2019-03-15T04:09:43.170Z,2.05
2019-03-15T04:12:11.846Z,1.95
2019-03-15T04:14:40.484Z,1.94
2019-03-15T04:17:09.160Z,1.98
2019-03-15T04:19:37.774Z,2.09
2019-03-15T04:22:06.588Z,2.04
2019-03-15T04:24:35.264Z,2.09
2019-03-15T04:27:03.876Z,2.08
2019-03-15T04:29:32.567Z,2.05
2019-03-15T04:32:01.658Z,2.10
2019-03-15T04:34:30.235Z,2.10
2019-03-15T04:36:58.851Z,2.09
2019-03-15T04:39:27.560Z,2.13
2019-03-15T04:41:56.181Z,2.03
2019-03-15T04:44:24.853Z,1.93
2019-03-15T04:46:54.523Z,1.89
2019-03-15T04:49:23.175Z,1.93
2019-03-15T04:51:51.854Z,1.91
2019-03-15T04:54:20.455Z,2.08
2019-03-15T04:56:49.306Z,2.06
2019-03-15T04:59:17.916Z,2.10
2019-03-15T05:01:46.998Z,2.04
2019-03-15T05:04:15.698Z,2.01
2019-03-15T05:06:44.302Z,1.96
2019-03-15T05:09:12.984Z,2.00
2019-03-15T05:11:41.625Z,2.06
2019-03-15T05:14:10.248Z,2.12
2019-03-15T05:16:38.925Z,2.18
2019-03-15T05:19:07.555Z,2.28
2019-03-15T05:21:36.267Z,2.32
2019-03-15T05:24:04.898Z,2.30
2019-03-15T05:26:33.571Z,2.31
2019-03-15T05:29:02.181Z,2.33
2019-03-15T05:31:30.856Z,2.34
2019-03-15T05:33:59.533Z,2.32
2019-03-15T05:36:28.135Z,2.39
2019-03-15T05:38:56.812Z,2.33
2019-03-15T05:41:25.423Z,2.27
2019-03-15T05:43:54.317Z,2.24
2019-03-15T05:46:24.986Z,2.21
2019-03-15T05:48:53.688Z,2.44
2019-03-15T05:51:22.521Z,2.50
2019-03-15T05:53:51.191Z,2.42
2019-03-15T05:56:19.817Z,2.74
2019-03-15T05:58:48.496Z,2.74
2019-03-15T06:01:17.118Z,2.62
2019-03-15T06:03:49.133Z,2.53
2019-03-15T06:06:17.790Z,2.64
2019-03-15T06:08:46.491Z,2.52
2019-03-15T06:11:15.135Z,2.68
2019-03-15T06:13:43.802Z,2.60
2019-03-15T06:16:12.413Z,2.56
2019-03-15T06:18:41.121Z,2.54
2019-03-15T06:21:09.729Z,2.54
2019-03-15T06:23:38.419Z,2.56
2019-03-15T06:26:07.045Z,2.74
2019-03-15T06:28:35.721Z,2.63
2019-03-15T06:31:04.400Z,2.78
2019-03-15T06:33:33.056Z,2.78
2019-03-15T06:36:01.824Z,2.76
2019-03-15T06:38:33.378Z,2.78
2019-03-15T06:41:01.002Z,2.82
2019-03-15T06:43:29.681Z,2.91
2019-03-15T06:46:00.602Z,2.94
2019-03-15T06:48:29.225Z,3.00
2019-03-15T06:50:57.902Z,3.00
2019-03-15T06:53:26.643Z,3.25
2019-03-15T06:55:55.312Z,3.13
2019-03-15T06:58:23.932Z,3.16
2019-03-15T07:00:54.763Z,3.17
2019-03-15T07:03:22.958Z,3.23
2019-03-15T07:05:51.634Z,3.21
2019-03-15T07:08:20.256Z,3.19
2019-03-15T07:10:48.961Z,3.16
2019-03-15T07:13:17.585Z,3.26
2019-03-15T07:15:46.252Z,3.28
2019-03-15T07:18:18.228Z,3.43
2019-03-15T07:20:45.279Z,3.40
2019-03-15T07:23:13.940Z,3.24
2019-03-15T07:25:42.610Z,3.16
2019-03-15T07:28:11.216Z,3.19
2019-03-15T07:30:39.924Z,3.37
2019-03-15T07:33:08.606Z,3.23
2019-03-15T07:35:37.319Z,3.38
2019-03-15T07:38:05.939Z,3.37
2019-03-15T07:40:34.583Z,3.36
2019-03-15T07:43:04.985Z,3.37
2019-03-15T07:45:33.662Z,3.44
2019-03-15T07:48:02.301Z,3.42
2019-03-15T07:50:30.976Z,3.38
2019-03-15T07:53:01.767Z,3.38
2019-03-15T07:55:30.086Z,3.41
2019-03-15T07:57:58.770Z,3.46
2019-03-15T08:00:27.462Z,3.33
2019-03-15T08:02:56.099Z,3.26
2019-03-15T08:05:26.106Z,3.41
2019-03-15T08:07:54.807Z,3.52
2019-03-15T08:10:23.756Z,3.43
2019-03-15T08:12:52.681Z,3.61
2019-03-15T08:15:21.365Z,3.66
2019-03-15T08:17:50.029Z,3.88
2019-03-15T08:20:18.738Z,3.77
2019-03-15T08:22:47.340Z,3.76
2019-03-15T08:25:16.071Z,3.84
2019-03-15T08:27:44.717Z,4.14
2019-03-15T08:30:17.160Z,4.07
2019-03-15T08:32:45.777Z,3.97
2019-03-15T08:35:14.419Z,4.40
2019-03-15T08:37:43.104Z,4.48
2019-03-15T08:40:15.308Z,4.40
2019-03-15T08:42:43.999Z,4.47
2019-03-15T08:45:20.088Z,4.50
2019-03-15T08:47:48.773Z,4.49
2019-03-15T08:50:18.572Z,4.46
2019-03-15T08:52:47.269Z,4.53
2019-03-15T08:55:15.887Z,4.41
2019-03-15T08:57:44.560Z,4.58
2019-03-15T09:00:16.204Z,4.63
2019-03-15T09:02:44.881Z,4.82
2019-03-15T09:05:16.954Z,4.58
2019-03-15T09:07:45.663Z,4.52
2019-03-15T09:10:23.130Z,4.66
2019-03-15T09:12:49.004Z,4.64
2019-03-15T09:15:17.672Z,4.72
2019-03-15T09:17:48.329Z,4.59
2019-03-15T09:20:16.723Z,4.60
2019-03-15T09:22:46.789Z,4.47
2019-03-15T09:25:20.238Z,4.71
2019-03-15T09:27:47.722Z,4.76
2019-03-15T09:30:23.799Z,4.57
2019-03-15T09:32:47.728Z,4.54
2019-03-15T09:35:16.433Z,4.47
2019-03-15T09:37:47.306Z,4.29
2019-03-15T09:40:16.120Z,4.41
2019-03-15T09:42:44.819Z,4.21
2019-03-15T09:45:18.217Z,4.33
2019-03-15T09:47:46.939Z,4.16
2019-03-15T09:50:26.438Z,4.26
2019-03-15T09:52:46.932Z,4.29
2019-03-15T09:55:15.708Z,4.23
2019-03-15T09:57:44.392Z,4.09
2019-03-15T10:00:22.625Z,4.33
2019-03-15T10:02:51.300Z,4.41
2019-03-15T10:05:19.980Z,4.52
2019-03-15T10:07:48.657Z,4.37
2019-03-15T10:10:19.206Z,4.46
2019-03-15T10:12:48.128Z,4.57
2019-03-15T10:15:17.728Z,4.63
2019-03-15T10:17:47.641Z,4.77
2019-03-15T10:20:17.037Z,4.50
2019-03-15T10:22:45.813Z,4.46
2019-03-15T10:25:16.463Z,4.49
2019-03-15T10:27:45.124Z,4.28
2019-03-15T10:30:20.609Z,4.44
2019-03-15T10:32:49.282Z,4.46
2019-03-15T10:35:17.988Z,4.47
2019-03-15T10:37:46.696Z,4.75
2019-03-15T10:40:22.650Z,4.68
2019-03-15T10:42:51.455Z,4.50
2019-03-15T10:45:20.836Z,4.69
2019-03-15T10:47:49.698Z,4.34
2019-03-15T10:50:19.306Z,4.47
2019-03-15T10:52:47.978Z,4.59
2019-03-15T10:55:20.486Z,4.45
2019-03-15T10:57:47.517Z,4.63
2019-03-15T11:00:20.073Z,4.67
2019-03-15T11:02:48.794Z,4.81
2019-03-15T11:05:17.537Z,4.79
2019-03-15T11:07:46.139Z,4.76
2019-03-15T11:10:15.177Z,4.57
2019-03-15T11:12:43.967Z,4.57
2019-03-15T11:15:14.551Z,4.66
2019-03-15T11:17:43.246Z,4.70
2019-03-15T11:20:12.562Z,4.81
2019-03-15T11:22:41.201Z,4.88
2019-03-15T11:25:11.830Z,4.91
2019-03-15T11:27:40.448Z,5.04
2019-03-15T11:30:11.687Z,4.95
2019-03-15T11:32:40.373Z,4.94
2019-03-15T11:35:10.935Z,4.71
2019-03-15T11:37:39.532Z,4.81
2019-03-15T11:40:13.883Z,4.89
2019-03-15T11:42:41.237Z,4.95
2019-03-15T11:45:11.169Z,4.82
2019-03-15T11:48:00.552Z,5.03
2019-03-15T11:50:14.145Z,4.87
2019-03-15T11:52:42.812Z,5.00
2019-03-15T11:55:11.503Z,4.83
2019-03-15T11:57:40.119Z,4.99
2019-03-15T12:00:16.197Z,4.88
2019-03-15T12:02:44.786Z,4.92
2019-03-15T12:05:13.766Z,5.05
2019-03-15T12:07:42.393Z,5.35
2019-03-15T12:10:18.149Z,5.33
2019-03-15T12:12:46.858Z,5.26
2019-03-15T12:15:18.278Z,5.36
2019-03-15T12:17:46.957Z,5.09
2019-03-15T12:20:15.839Z,5.16
2019-03-15T12:22:44.565Z,5.16
2019-03-15T12:25:16.245Z,5.02
2019-03-15T12:27:44.861Z,4.98
2019-03-15T12:30:17.874Z,5.07
2019-03-15T12:32:46.488Z,4.86
2019-03-15T12:35:16.240Z,4.96
2019-03-15T12:37:44.892Z,5.07
2019-03-15T12:40:18.542Z,5.05
2019-03-15T12:42:47.191Z,5.01
2019-03-15T12:45:16.387Z,5.00
2019-03-15T12:47:46.633Z,4.89
2019-03-15T12:50:16.145Z,5.09
2019-03-15T12:52:48.759Z,5.04
2019-03-15T12:55:20.717Z,5.07
2019-03-15T12:57:51.873Z,4.94
2019-03-15T13:00:21.198Z,5.04
2019-03-15T13:02:51.500Z,4.92
2019-03-15T13:05:20.296Z,4.71
2019-03-15T13:07:56.759Z,4.72
2019-03-15T13:10:25.475Z,4.62
2019-03-15T13:12:54.120Z,4.63
2019-03-15T13:15:22.752Z,4.60
2019-03-15T13:17:52.080Z,4.57
2019-03-15T13:20:20.979Z,4.55
2019-03-15T13:22:49.610Z,4.51
2019-03-15T13:25:18.348Z,4.59
2019-03-15T13:27:47.045Z,4.61
2019-03-15T13:30:17.270Z,4.66
2019-03-15T13:32:47.486Z,4.55
2019-03-15T13:35:16.186Z,4.43
2019-03-15T13:37:46.487Z,4.37
2019-03-15T13:40:18.890Z,4.36
2019-03-15T13:42:50.501Z,4.36
2019-03-15T13:45:19.237Z,4.42
2019-03-15T13:47:47.856Z,4.42
2019-03-15T13:50:18.818Z,4.38
2019-03-15T13:52:47.490Z,4.30
2019-03-15T13:55:16.176Z,4.25
2019-03-15T13:57:47.827Z,4.23
2019-03-15T14:00:17.845Z,4.25
2019-03-15T14:02:49.734Z,4.11
2019-03-15T14:05:18.543Z,4.13
2019-03-15T14:07:47.227Z,4.18
2019-03-15T14:10:17.988Z,4.22
2019-03-15T14:12:46.944Z,4.16
2019-03-15T14:15:18.302Z,4.25
2019-03-15T14:17:48.459Z,4.16
2019-03-15T14:20:17.301Z,4.15
2019-03-15T14:22:46.041Z,4.12
2019-03-15T14:25:23.335Z,4.10
2019-03-15T14:27:57.821Z,4.20
2019-03-15T14:30:26.641Z,4.16
2019-03-15T14:32:55.348Z,4.10
2019-03-15T14:35:25.069Z,4.03
2019-03-15T14:37:53.971Z,4.09
2019-03-15T14:40:22.760Z,4.09
2019-03-15T14:42:51.463Z,4.15
2019-03-15T14:45:21.385Z,4.05
2019-03-15T14:47:53.732Z,4.11
2019-03-15T14:50:22.113Z,3.99
2019-03-15T14:52:50.751Z,4.06
2019-03-15T14:55:22.502Z,4.09
2019-03-15T14:57:53.612Z,3.92
2019-03-15T15:00:22.485Z,3.99
2019-03-15T15:02:51.182Z,4.04
2019-03-15T15:05:21.227Z,3.93
2019-03-15T15:07:49.902Z,3.89
2019-03-15T15:10:19.225Z,3.86
2019-03-15T15:12:47.839Z,3.87
2019-03-15T15:15:18.746Z,3.78
2019-03-15T15:17:47.447Z,3.92
2019-03-15T15:20:18.029Z,3.90
2019-03-15T15:22:48.783Z,3.92
2019-03-15T15:25:22.962Z,3.97
2019-03-15T15:28:03.797Z,3.97
2019-03-15T15:30:24.959Z,4.00
2019-03-15T15:32:55.650Z,4.07
2019-03-15T15:35:24.559Z,4.03
2019-03-15T15:37:53.350Z,3.96
2019-03-15T15:40:23.882Z,4.02
2019-03-15T15:42:52.637Z,4.05
2019-03-15T15:45:21.325Z,4.04
2019-03-15T15:47:50.012Z,4.05
2019-03-15T15:50:18.988Z,4.07
2019-03-15T15:52:47.758Z,4.06
2019-03-15T15:55:17.104Z,3.94
2019-03-15T15:57:45.934Z,3.89
2019-03-15T16:00:18.507Z,3.86
2019-03-15T16:02:47.353Z,3.86
2019-03-15T16:05:16.168Z,3.89
2019-03-15T16:07:45.041Z,3.90
2019-03-15T16:10:17.912Z,3.95
2019-03-15T16:12:45.469Z,3.93
2019-03-15T16:15:18.369Z,3.96
2019-03-15T16:17:47.273Z,3.94
2019-03-15T16:20:17.816Z,3.99
2019-03-15T16:22:47.966Z,3.88
2019-03-15T16:25:16.857Z,3.78
2019-03-15T16:27:45.608Z,3.76
2019-03-15T16:30:22.402Z,3.74
2019-03-15T16:32:52.870Z,3.76
2019-03-15T16:35:21.740Z,3.77
2019-03-15T16:37:53.404Z,3.75
2019-03-15T16:40:22.025Z,3.68
2019-03-15T16:42:50.896Z,3.66
2019-03-15T16:45:30.360Z,3.77
2019-03-15T16:47:59.297Z,3.83
2019-03-15T16:50:29.988Z,3.69
2019-03-15T16:52:58.684Z,3.66
2019-03-15T16:55:27.400Z,3.67
2019-03-15T16:57:56.144Z,3.70
2019-03-15T17:00:24.767Z,3.78
2019-03-15T17:02:54.184Z,3.67
2019-03-15T17:05:22.820Z,3.60
2019-03-15T17:07:53.492Z,3.58
2019-03-15T17:10:23.686Z,3.77
2019-03-15T17:12:55.636Z,3.64
2019-03-15T17:15:25.268Z,3.66
2019-03-15T17:17:53.965Z,3.63
2019-03-15T17:20:22.588Z,3.57
2019-03-15T17:22:51.222Z,3.51
2019-03-15T17:25:20.027Z,3.52
2019-03-15T17:27:48.641Z,3.51
2019-03-15T17:30:17.825Z,3.51
2019-03-15T17:32:46.447Z,3.51
2019-03-15T17:35:20.526Z,3.54
2019-03-15T17:37:49.139Z,3.65
2019-03-15T17:40:19.197Z,3.61
2019-03-15T17:42:47.830Z,3.58
2019-03-15T17:45:16.549Z,3.54
2019-03-15T17:47:45.266Z,3.58
2019-03-15T17:50:24.274Z,3.57
2019-03-15T17:52:52.931Z,3.59
2019-03-15T17:55:21.707Z,3.57
2019-03-15T17:57:50.331Z,3.57
2019-03-15T18:00:25.964Z,3.65
2019-03-15T18:02:54.622Z,3.62
2019-03-15T18:05:23.304Z,3.61
2019-03-15T18:07:52.147Z,3.62
2019-03-15T18:10:22.502Z,3.56
2019-03-15T18:12:51.457Z,3.62
2019-03-15T18:15:20.861Z,3.63
2019-03-15T18:17:49.668Z,3.54
2019-03-15T18:20:18.707Z,3.47
2019-03-15T18:22:49.344Z,3.51
2019-03-15T18:25:18.299Z,3.46
2019-03-15T18:27:49.354Z,3.44
2019-03-15T18:30:18.766Z,3.43
2019-03-15T18:32:47.525Z,3.42
2019-03-15T18:35:17.586Z,3.47
2019-03-15T18:37:47.934Z,3.50
2019-03-15T18:40:26.577Z,3.56
2019-03-15T18:42:51.205Z,3.51
2019-03-15T18:45:19.951Z,3.56
2019-03-15T18:47:51.463Z,3.55
2019-03-15T18:50:22.723Z,3.66
2019-03-15T18:52:51.782Z,3.69
2019-03-15T18:55:20.641Z,3.63
2019-03-15T18:57:49.264Z,3.49
2019-03-15T19:00:21.109Z,3.51
2019-03-15T19:02:49.864Z,3.55
2019-03-15T19:05:20.290Z,3.62
2019-03-15T19:07:51.305Z,3.63
2019-03-15T19:10:20.044Z,3.52
2019-03-15T19:12:48.670Z,3.57
2019-03-15T19:15:21.684Z,3.45
2019-03-15T19:17:50.343Z,3.56
2019-03-15T19:20:18.982Z,3.65
2019-03-15T19:22:47.676Z,3.62
2019-03-15T19:25:16.758Z,3.58
2019-03-15T19:27:45.640Z,3.61
2019-03-15T19:30:16.398Z,3.65
2019-03-15T19:32:45.135Z,3.65
2019-03-15T19:35:14.061Z,3.62
2019-03-15T19:37:43.222Z,3.53
2019-03-15T19:40:19.428Z,3.58
2019-03-15T19:42:49.725Z,3.52
2019-03-15T19:45:18.540Z,3.53
2019-03-15T19:47:47.334Z,3.50
2019-03-15T19:50:21.359Z,3.50
2019-03-15T19:52:50.172Z,3.50
2019-03-15T19:55:19.063Z,3.50
2019-03-15T19:57:47.833Z,3.48
2019-03-15T20:00:23.148Z,3.51
2019-03-15T20:02:52.130Z,3.52
2019-03-15T20:05:21.151Z,3.55
2019-03-15T20:07:50.359Z,3.56
2019-03-15T20:10:19.498Z,3.50
2019-03-15T20:12:48.171Z,3.41
2019-03-15T20:15:17.512Z,3.44
2019-03-15T20:17:46.405Z,3.44
2019-03-15T20:20:19.269Z,3.45
2019-03-15T20:22:48.152Z,3.48
2019-03-15T20:25:17.663Z,3.54
2019-03-15T20:27:46.415Z,3.55
2019-03-15T20:30:26.899Z,3.62
2019-03-15T20:32:55.852Z,3.61
2019-03-15T20:35:24.595Z,3.61
2019-03-15T20:37:53.237Z,3.58
2019-03-15T20:40:22.051Z,3.57
2019-03-15T20:42:50.738Z,3.59
2019-03-15T20:45:22.436Z,3.59
2019-03-15T20:47:53.909Z,3.62
2019-03-15T20:50:22.639Z,3.61
2019-03-15T20:52:51.369Z,3.65
2019-03-15T20:58:51.863Z,3.72
2019-03-15T21:01:20.587Z,3.62
2019-03-15T21:03:55.952Z,3.56
2019-03-15T21:06:21.409Z,3.57
2019-03-15T21:08:51.851Z,3.65
2019-03-15T21:11:20.787Z,3.70
2019-03-15T21:13:49.976Z,3.84
2019-03-15T21:16:19.048Z,3.82
2019-03-15T21:18:48.353Z,3.73
2019-03-15T21:21:19.625Z,3.77
2019-03-15T21:23:48.660Z,3.81
2019-03-15T21:26:18.122Z,3.83
2019-03-15T21:28:46.949Z,3.77
2019-03-15T21:31:15.778Z,3.71
2019-03-15T21:33:45.446Z,3.76
2019-03-15T21:36:14.178Z,3.67
2019-03-15T21:38:48.216Z,3.69
2019-03-15T21:41:13.427Z,3.74
2019-03-15T21:43:42.143Z,3.81
2019-03-15T21:46:10.979Z,3.75
2019-03-15T21:48:39.722Z,3.62
2019-03-15T21:51:08.418Z,3.63
2019-03-15T21:53:37.462Z,3.72
2019-03-15T21:56:06.164Z,3.69
2019-03-15T21:58:34.907Z,3.69
2019-03-15T22:01:03.768Z,3.68
2019-03-15T22:03:32.408Z,3.69
2019-03-15T22:06:01.060Z,3.79
2019-03-15T22:08:30.638Z,3.80
2019-03-15T22:10:59.379Z,3.74
2019-03-15T22:13:28.037Z,3.83
2019-03-15T22:15:57.910Z,3.80
2019-03-15T22:18:26.625Z,3.88
2019-03-15T22:20:55.746Z,3.96
2019-03-15T22:23:24.725Z,3.90
2019-03-15T22:25:53.500Z,3.93
2019-03-15T22:28:22.148Z,3.76
2019-03-15T22:30:50.856Z,3.74
2019-03-15T22:33:20.157Z,3.83
2019-03-15T22:35:48.918Z,3.78
2019-03-15T22:38:26.213Z,3.69
2019-03-15T22:40:48.238Z,3.62
2019-03-15T22:43:16.945Z,3.63
2019-03-15T22:45:45.647Z,3.71
2019-03-15T22:48:14.265Z,3.74
2019-03-15T22:50:42.955Z,3.87
2019-03-15T22:53:11.563Z,3.87
2019-03-15T22:55:41.111Z,3.95
2019-03-15T22:58:09.824Z,3.95
2019-03-15T23:00:38.863Z,3.95
2019-03-15T23:03:07.639Z,4.05
2019-03-15T23:05:36.335Z,4.02
2019-03-15T23:08:07.043Z,3.99
2019-03-15T23:10:36.093Z,4.08
2019-03-15T23:13:04.817Z,4.20
2019-03-15T23:15:34.895Z,4.34
2019-03-15T23:18:05.257Z,4.37
2019-03-15T23:20:34.237Z,4.33
2019-03-15T23:23:03.498Z,4.35
2019-03-15T23:25:32.498Z,4.36
2019-03-15T23:28:01.137Z,4.36
2019-03-15T23:30:29.759Z,4.40
2019-03-15T23:32:58.638Z,4.47
2019-03-15T23:35:27.255Z,4.53
2019-03-15T23:37:55.938Z,4.42
2019-03-15T23:40:25.873Z,4.49
2019-03-15T23:42:54.500Z,4.45
2019-03-15T23:45:23.200Z,4.51
2019-03-15T23:47:51.933Z,4.63
2019-03-15T23:50:20.617Z,4.66
2019-03-15T23:52:50.090Z,4.58
2019-03-15T23:55:18.707Z,4.44
2019-03-15T23:57:47.358Z,4.46
